SWA494 KBHM-KDAL
Flight info
| Callsign | SWA494 |
|---|---|
| Flight time | N/A |
| Altitude | 28000 |
| Route | JOEYE IGB TOMLN DIRRK HIBIL3 |
| Aircraft | B38M/M-VGDW/C |
Departure
| Time | 2026-04-30 22:39 |
|---|---|
| Airport | Birmingham-Shuttlesworth International Airport (KBHM) |
Arrival
| Time | N/A |
|---|---|
| Airport | Dallas Love Field (KDAL) |
| Time | Latitude | Longitude | Altitude | Speed | Heading |
|---|---|---|---|---|---|
| 2026-04-30 22:07 | 33.56176 | -86.75365 | 610 ft | 0 kts | 168° |
| 2026-04-30 22:25 | 33.56179 | -86.75366 | 610 ft | 3 kts | 168° |
| 2026-04-30 22:26 | 33.56216 | -86.75375 | 620 ft | 3 kts | 168° |
| 2026-04-30 22:26 | 33.56234 | -86.75379 | 624 ft | 3 kts | 168° |
| 2026-04-30 22:26 | 33.56252 | -86.75383 | 621 ft | 3 kts | 168° |
| 2026-04-30 22:27 | 33.56255 | -86.75384 | 619 ft | 0 kts | 169° |
| 2026-04-30 22:35 | 33.56248 | -86.75386 | 623 ft | 3 kts | 202° |
| 2026-04-30 22:36 | 33.56188 | -86.75722 | 617 ft | 26 kts | 235° |
| 2026-04-30 22:36 | 33.56075 | -86.75923 | 613 ft | 31 kts | 237° |
| 2026-04-30 22:37 | 33.55667 | -86.76630 | 618 ft | 35 kts | 236° |
| 2026-04-30 22:37 | 33.55523 | -86.76878 | 617 ft | 37 kts | 234° |
| 2026-04-30 22:37 | 33.55428 | -86.77073 | 610 ft | 0 kts | 285° |
| 2026-04-30 22:38 | 33.55498 | -86.77126 | 624 ft | 10 kts | 19° |
| 2026-04-30 22:38 | 33.55635 | -86.76889 | 618 ft | 63 kts | 55° |
| 2026-04-30 22:39 | 33.56037 | -86.76195 | 619 ft | 136 kts | 55° |
| 2026-04-30 22:39 | 33.58085 | -86.72457 | 2260 ft | 182 kts | 53° |
| 2026-04-30 22:40 | 33.60475 | -86.68150 | 3107 ft | 234 kts | 53° |
| 2026-04-30 22:41 | 33.64598 | -86.67488 | 3221 ft | 242 kts | 308° |
| 2026-04-30 22:41 | 33.65258 | -86.71420 | 3476 ft | 255 kts | 252° |
| 2026-04-30 22:42 | 33.63127 | -86.79605 | 5915 ft | 262 kts | 254° |
| 2026-04-30 22:43 | 33.62081 | -86.83847 | 8004 ft | 268 kts | 253° |
| 2026-04-30 22:43 | 33.61004 | -86.88173 | 10080 ft | 274 kts | 253° |
| 2026-04-30 22:44 | 33.59869 | -86.92819 | 11184 ft | 310 kts | 255° |
| 2026-04-30 22:45 | 33.57270 | -87.03347 | 11966 ft | 335 kts | 254° |
| 2026-04-30 22:45 | 33.55908 | -87.08698 | 12229 ft | 337 kts | 254° |
| 2026-04-30 22:46 | 33.54524 | -87.14090 | 14015 ft | 342 kts | 255° |
| 2026-04-30 22:47 | 33.51698 | -87.25082 | 17325 ft | 350 kts | 256° |
| 2026-04-30 22:47 | 33.50249 | -87.30682 | 18809 ft | 354 kts | 256° |
| 2026-04-30 22:48 | 33.49341 | -87.36425 | 20228 ft | 351 kts | 270° |
| 2026-04-30 22:49 | 33.49261 | -87.45302 | 22112 ft | 358 kts | 270° |
| 2026-04-30 22:49 | 33.49229 | -87.54345 | 23818 ft | 365 kts | 269° |
| 2026-04-30 22:50 | 33.49185 | -87.66658 | 25685 ft | 375 kts | 269° |
| 2026-04-30 22:51 | 33.49158 | -87.72952 | 26559 ft | 380 kts | 269° |
| 2026-04-30 22:51 | 33.49132 | -87.78257 | 27280 ft | 384 kts | 270° |
| 2026-04-30 22:52 | 33.49110 | -87.82509 | 27806 ft | 388 kts | 269° |
| 2026-04-30 22:52 | 33.49073 | -87.89071 | 27950 ft | 399 kts | 269° |
| 2026-04-30 22:53 | 33.49038 | -87.94609 | 27963 ft | 400 kts | 269° |
| 2026-04-30 22:53 | 33.48994 | -88.01268 | 27968 ft | 400 kts | 269° |
| 2026-04-30 22:53 | 33.48971 | -88.04600 | 27969 ft | 400 kts | 269° |
| 2026-04-30 22:54 | 33.48922 | -88.11274 | 27971 ft | 400 kts | 269° |
| 2026-04-30 22:55 | 33.48840 | -88.21285 | 27975 ft | 401 kts | 269° |
| 2026-04-30 22:55 | 33.48782 | -88.27967 | 27974 ft | 401 kts | 269° |
| 2026-04-30 22:56 | 33.48720 | -88.34617 | 27973 ft | 401 kts | 269° |
| 2026-04-30 22:57 | 33.48556 | -88.51330 | 28007 ft | 403 kts | 269° |
| 2026-04-30 22:58 | 33.48480 | -88.64762 | 28004 ft | 404 kts | 269° |
| 2026-04-30 22:59 | 33.48412 | -88.74863 | 27987 ft | 404 kts | 269° |
| 2026-04-30 22:59 | 33.48336 | -88.84980 | 27986 ft | 404 kts | 269° |